createdAt,value
2018-12-20T00:02:24.160Z,99448.48
2018-12-20T00:04:51.755Z,99444.50
2018-12-20T00:07:19.450Z,99441.73
2018-12-20T00:09:47.039Z,99440.30
2018-12-20T00:12:14.589Z,99440.66
2018-12-20T00:14:42.142Z,99435.35
2018-12-20T00:17:14.922Z,99436.43
2018-12-20T00:19:42.577Z,99437.66
2018-12-20T00:22:10.205Z,99439.45
2018-12-20T00:24:37.832Z,99443.43
2018-12-20T00:27:05.575Z,99437.27
2018-12-20T00:29:33.227Z,99434.76
2018-12-20T00:32:00.814Z,99443.43
2018-12-20T00:34:28.638Z,99441.25
2018-12-20T00:36:56.284Z,99438.73
2018-12-20T00:39:23.802Z,99441.97
2018-12-20T00:41:51.425Z,99437.27
2018-12-20T00:44:19.040Z,99439.21
2018-12-20T00:46:47.301Z,99438.86
2018-12-20T00:49:14.831Z,99436.81
2018-12-20T00:51:42.409Z,99435.96
2018-12-20T00:54:10.054Z,99433.78
2018-12-20T00:56:37.766Z,99431.81
2018-12-20T00:59:05.368Z,99432.43
2018-12-20T01:01:33.015Z,99438.91
2018-12-20T01:04:00.714Z,99441.81
2018-12-20T01:06:28.350Z,99433.47
2018-12-20T01:08:56.218Z,99431.68
2018-12-20T01:11:23.907Z,99438.52
2018-12-20T01:13:51.562Z,99446.58
2018-12-20T01:16:19.255Z,99440.34
2018-12-20T01:18:47.079Z,99439.95
2018-12-20T01:21:14.707Z,99438.52
2018-12-20T01:23:42.316Z,99447.69
2018-12-20T01:26:09.956Z,99446.72
2018-12-20T01:28:37.521Z,99447.94
2018-12-20T01:31:05.430Z,99452.38
2018-12-20T01:33:33.121Z,99446.26
2018-12-20T01:36:00.877Z,99451.77
2018-12-20T01:38:28.601Z,99453.81
2018-12-20T01:40:56.330Z,99463.33
2018-12-20T01:43:24.296Z,99461.76
2018-12-20T01:45:52.128Z,99453.30
2018-12-20T01:48:20.767Z,99449.21
2018-12-20T01:50:48.474Z,99448.48
2018-12-20T01:53:17.431Z,99447.38
2018-12-20T01:55:45.317Z,99449.66
2018-12-20T01:58:12.938Z,99449.05
2018-12-20T02:00:40.499Z,99449.75
2018-12-20T02:03:08.135Z,99447.92
2018-12-20T02:05:35.751Z,99448.73
2018-12-20T02:08:03.491Z,99449.08
2018-12-20T02:10:31.162Z,99451.00
2018-12-20T02:12:58.963Z,99447.27
2018-12-20T02:15:26.622Z,99453.27
2018-12-20T02:17:54.148Z,99452.16
2018-12-20T02:20:22.115Z,99442.27
2018-12-20T02:22:49.759Z,99441.44
2018-12-20T02:25:17.324Z,99447.72
2018-12-20T02:27:46.184Z,99439.58
2018-12-20T02:30:13.832Z,99436.23
2018-12-20T02:32:41.391Z,99428.50
2018-12-20T02:35:08.980Z,99431.05
2018-12-20T02:37:36.813Z,99429.02
2018-12-20T02:40:04.422Z,99432.53
2018-12-20T02:42:32.050Z,99431.22
2018-12-20T02:44:59.683Z,99432.80
2018-12-20T02:47:30.117Z,99429.19
2018-12-20T02:49:57.917Z,99428.33
2018-12-20T02:52:26.574Z,99433.62
2018-12-20T02:54:54.295Z,99430.61
2018-12-20T02:57:22.119Z,99430.15
2018-12-20T02:59:49.984Z,99428.33
2018-12-20T03:02:17.717Z,99423.89
2018-12-20T03:04:45.445Z,99426.68
2018-12-20T03:07:13.124Z,99425.58
2018-12-20T03:09:40.734Z,99428.02
2018-12-20T03:12:08.485Z,99421.25
2018-12-20T03:14:36.196Z,99419.34
2018-12-20T03:17:03.816Z,99417.78
2018-12-20T03:19:31.507Z,99412.27
2018-12-20T03:21:59.067Z,99413.45
2018-12-20T03:24:26.839Z,99411.05
2018-12-20T03:26:54.717Z,99407.79
2018-12-20T03:29:22.685Z,99409.47
2018-12-20T03:31:50.501Z,99410.22
2018-12-20T03:34:18.231Z,99407.08
2018-12-20T03:36:45.902Z,99406.61
2018-12-20T03:39:13.750Z,99399.48
2018-12-20T03:41:41.433Z,99400.59
2018-12-20T03:44:09.011Z,99399.98
2018-12-20T03:46:36.608Z,99399.02
2018-12-20T03:49:05.155Z,99400.70
2018-12-20T03:51:33.177Z,99394.06
2018-12-20T03:54:01.273Z,99393.10
2018-12-20T03:56:29.005Z,99396.14
2018-12-20T03:58:56.614Z,99387.80
2018-12-20T04:01:24.178Z,99393.49
2018-12-20T04:03:51.765Z,99389.02
2018-12-20T04:06:19.633Z,99383.71
2018-12-20T04:08:47.289Z,99389.02
2018-12-20T04:11:15.797Z,99388.41
2018-12-20T04:13:43.671Z,99387.08
2018-12-20T04:16:11.475Z,99390.59
2018-12-20T04:18:40.192Z,99386.72
2018-12-20T04:21:07.868Z,99388.91
2018-12-20T04:23:35.767Z,99388.80
2018-12-20T04:26:03.580Z,99388.41
2018-12-20T04:28:31.430Z,99393.70
2018-12-20T04:30:59.095Z,99386.97
2018-12-20T04:33:26.984Z,99384.20
2018-12-20T04:35:54.704Z,99385.89
2018-12-20T04:38:22.403Z,99386.86
2018-12-20T04:40:50.303Z,99390.34
2018-12-20T04:43:17.826Z,99398.07
2018-12-20T04:45:46.753Z,99399.28
2018-12-20T04:48:16.240Z,99397.20
2018-12-20T04:50:43.861Z,99400.10
2018-12-20T04:53:11.443Z,99403.11
2018-12-20T04:55:39.893Z,99409.63
2018-12-20T04:58:07.676Z,99400.35
2018-12-20T05:00:35.264Z,99394.47
2018-12-20T05:03:02.807Z,99392.67
2018-12-20T05:05:30.640Z,99390.96
2018-12-20T05:07:58.266Z,99384.80
2018-12-20T05:10:26.129Z,99384.72
2018-12-20T05:12:53.784Z,99376.30
2018-12-20T05:15:21.417Z,99376.30
2018-12-20T05:17:49.413Z,99379.30
2018-12-20T05:20:17.093Z,99378.95
2018-12-20T05:22:44.618Z,99379.77
2018-12-20T05:25:12.487Z,99381.68
2018-12-20T05:27:40.005Z,99390.60
2018-12-20T05:30:07.527Z,99387.20
2018-12-20T05:32:35.474Z,99386.63
2018-12-20T05:35:04.124Z,99394.08
2018-12-20T05:37:34.863Z,99384.72
2018-12-20T05:40:03.017Z,99392.67
2018-12-20T05:42:30.805Z,99390.88
2018-12-20T05:44:58.638Z,99391.59
2018-12-20T05:47:26.591Z,99403.78
2018-12-20T05:49:54.137Z,99395.20
2018-12-20T05:52:21.778Z,99404.23
2018-12-20T05:54:49.787Z,99405.92
2018-12-20T05:57:17.331Z,99406.66
2018-12-20T05:59:44.891Z,99402.69
2018-12-20T06:02:12.974Z,99410.50
2018-12-20T06:04:40.640Z,99406.17
2018-12-20T06:07:08.328Z,99412.94
2018-12-20T06:09:36.504Z,99419.08
2018-12-20T06:12:04.178Z,99415.58
2018-12-20T06:14:34.896Z,99416.88
2018-12-20T06:17:03.757Z,99416.88
2018-12-20T06:19:31.700Z,99422.55
2018-12-20T06:21:59.341Z,99423.37
2018-12-20T06:24:27.253Z,99433.00
2018-12-20T06:26:54.827Z,99437.80
2018-12-20T06:29:22.904Z,99435.62
2018-12-20T06:31:51.523Z,99435.72
2018-12-20T06:34:19.085Z,99435.83
2018-12-20T06:36:46.698Z,99434.85
2018-12-20T06:39:15.747Z,99437.02
2018-12-20T06:41:44.516Z,99436.77
2018-12-20T06:44:12.100Z,99435.20
2018-12-20T06:46:44.168Z,99438.80
2018-12-20T06:49:12.264Z,99433.15
2018-12-20T06:51:39.813Z,99437.73
2018-12-20T06:54:08.769Z,99429.88
2018-12-20T06:56:36.339Z,99432.53
2018-12-20T06:59:03.983Z,99433.00
2018-12-20T07:01:32.035Z,99442.88
2018-12-20T07:03:59.632Z,99440.83
2018-12-20T07:06:27.267Z,99439.71
2018-12-20T07:08:56.263Z,99444.39
2018-12-20T07:11:23.825Z,99437.66
2018-12-20T07:13:51.450Z,99437.86
2018-12-20T07:16:20.579Z,99442.94
2018-12-20T07:18:48.151Z,99437.02
2018-12-20T07:21:15.716Z,99434.22
2018-12-20T07:23:43.629Z,99447.56
2018-12-20T07:26:11.182Z,99452.23
2018-12-20T07:28:38.751Z,99455.02
2018-12-20T07:31:06.628Z,99456.09
2018-12-20T07:33:34.194Z,99449.67
2018-12-20T07:36:03.539Z,99454.97
2018-12-20T07:38:31.452Z,99454.61
2018-12-20T07:40:59.974Z,99459.53
2018-12-20T07:43:27.545Z,99454.24
2018-12-20T07:45:55.452Z,99457.85
2018-12-20T07:48:23.060Z,99453.42
2018-12-20T07:50:51.647Z,99454.84
2018-12-20T07:53:19.665Z,99453.28
2018-12-20T07:55:47.335Z,99455.83
2018-12-20T07:58:14.884Z,99460.66
2018-12-20T08:00:42.843Z,99460.27
2018-12-20T08:03:10.424Z,99463.30
2018-12-20T08:05:37.972Z,99468.83
2018-12-20T08:08:09.240Z,99464.39
2018-12-20T08:10:38.120Z,99462.47
2018-12-20T08:13:05.677Z,99465.38
2018-12-20T08:15:33.535Z,99472.72
2018-12-20T08:18:01.091Z,99472.25
2018-12-20T08:20:28.666Z,99475.63
2018-12-20T08:22:56.560Z,99474.09
2018-12-20T08:25:24.180Z,99477.36
2018-12-20T08:27:51.805Z,99477.13
2018-12-20T08:30:19.685Z,99487.88
2018-12-20T08:32:47.247Z,99490.75
2018-12-20T08:35:14.794Z,99490.04
2018-12-20T08:37:45.415Z,99488.77
2018-12-20T08:40:12.992Z,99489.84
2018-12-20T08:42:40.594Z,99484.20
2018-12-20T08:45:08.173Z,99493.98
2018-12-20T08:47:35.735Z,99493.02
2018-12-20T08:50:03.715Z,99500.27
2018-12-20T08:52:31.299Z,99503.64
2018-12-20T08:54:58.857Z,99497.51
2018-12-20T08:57:26.853Z,99495.93
2018-12-20T08:59:54.431Z,99500.11
2018-12-20T09:02:21.978Z,99498.43
2018-12-20T09:04:53.454Z,99503.13
2018-12-20T09:07:21.561Z,99509.90
2018-12-20T09:09:49.159Z,99510.02
2018-12-20T09:12:17.133Z,99508.13
2018-12-20T09:14:44.707Z,99511.50
2018-12-20T09:17:12.287Z,99507.05
2018-12-20T09:19:40.944Z,99507.77
2018-12-20T09:22:08.498Z,99509.00
2018-12-20T09:24:36.952Z,99513.09
2018-12-20T09:27:04.965Z,99505.86
2018-12-20T09:29:32.496Z,99504.67
2018-12-20T09:32:00.114Z,99515.17
2018-12-20T09:34:30.153Z,99512.39
2018-12-20T09:36:57.678Z,99510.35
2018-12-20T09:39:27.117Z,99511.20
2018-12-20T09:41:55.571Z,99510.50
2018-12-20T09:44:23.144Z,99509.42
2018-12-20T09:49:34.627Z,99512.91
2018-12-20T09:52:02.228Z,99517.99
2018-12-20T09:54:31.339Z,99508.47
2018-12-20T09:57:00.223Z,99512.59
2018-12-20T09:59:27.816Z,99509.25
2018-12-20T10:01:55.843Z,99508.18
2018-12-20T10:04:26.360Z,99504.92
2018-12-20T10:06:53.963Z,99509.15
2018-12-20T10:09:21.891Z,99508.78
2018-12-20T10:11:49.470Z,99505.05
2018-12-20T10:14:17.262Z,99508.67
2018-12-20T10:16:46.871Z,99503.02
2018-12-20T10:19:14.620Z,99504.57
2018-12-20T10:21:43.280Z,99497.20
2018-12-20T10:24:11.328Z,99494.91
2018-12-20T10:26:38.915Z,99490.42
2018-12-20T10:29:06.497Z,99498.16
2018-12-20T10:31:34.534Z,99499.95
2018-12-20T10:34:03.566Z,99492.60
2018-12-20T10:36:31.123Z,99503.09
2018-12-20T10:38:59.138Z,99504.33
2018-12-20T10:41:33.718Z,99501.66
2018-12-20T10:44:03.471Z,99503.73
2018-12-20T10:46:32.895Z,99504.20
2018-12-20T10:49:01.791Z,99503.39
2018-12-20T10:51:31.171Z,99503.61
2018-12-20T10:54:00.089Z,99493.23
2018-12-20T10:56:28.681Z,99497.59
2018-12-20T10:58:59.468Z,99491.16
2018-12-20T11:01:33.448Z,99484.02
2018-12-20T11:04:06.425Z,99479.05
2018-12-20T11:06:39.191Z,99473.27
2018-12-20T11:09:12.239Z,99476.88
2018-12-20T11:11:44.974Z,99475.08
2018-12-20T11:14:12.513Z,99464.78
2018-12-20T11:16:40.548Z,99465.05
2018-12-20T11:19:08.139Z,99463.84
2018-12-20T11:21:35.705Z,99464.20
2018-12-20T11:24:05.478Z,99452.22
2018-12-20T11:26:33.039Z,99455.11
2018-12-20T11:29:00.607Z,99454.66
2018-12-20T11:31:29.602Z,99450.41
2018-12-20T11:33:57.238Z,99447.84
2018-12-20T11:36:25.020Z,99448.31
2018-12-20T11:38:53.917Z,99450.89
2018-12-20T11:41:21.468Z,99454.25
2018-12-20T11:43:49.039Z,99458.17
2018-12-20T11:46:16.601Z,99459.15
2018-12-20T11:48:51.440Z,99455.91
2018-12-20T11:51:19.442Z,99460.89
2018-12-20T11:53:48.664Z,99468.77
2018-12-20T11:56:16.279Z,99457.63
2018-12-20T11:58:45.011Z,99465.67
2018-12-20T12:01:12.707Z,99456.91
2018-12-20T12:03:41.872Z,99459.34
2018-12-20T12:06:11.022Z,99459.53
2018-12-20T12:08:38.654Z,99451.80
2018-12-20T12:11:07.001Z,99453.13
2018-12-20T12:13:34.939Z,99454.80
2018-12-20T12:16:02.538Z,99459.50
2018-12-20T12:18:30.082Z,99454.80
2018-12-20T12:20:59.136Z,99457.94
2018-12-20T12:23:27.696Z,99458.09
2018-12-20T12:25:55.355Z,99451.00
2018-12-20T12:28:24.039Z,99445.30
2018-12-20T12:30:55.258Z,99442.80
2018-12-20T12:33:23.416Z,99449.91
2018-12-20T12:35:52.132Z,99456.91
2018-12-20T12:38:20.653Z,99458.23
2018-12-20T12:40:48.247Z,99451.29
2018-12-20T12:43:17.036Z,99454.77
2018-12-20T12:45:44.597Z,99444.17
2018-12-20T12:48:14.137Z,99450.11
2018-12-20T12:50:42.734Z,99457.90
2018-12-20T12:53:16.287Z,99462.11
2018-12-20T12:55:43.855Z,99460.75
2018-12-20T12:58:11.953Z,99458.78
2018-12-20T13:00:39.535Z,99460.87
2018-12-20T13:03:07.312Z,99462.10
2018-12-20T13:05:35.619Z,99457.76
2018-12-20T13:08:03.172Z,99467.42
2018-12-20T13:10:30.818Z,99456.94
2018-12-20T13:12:58.760Z,99460.79
2018-12-20T13:15:26.394Z,99467.06
2018-12-20T13:17:54.487Z,99455.61
2018-12-20T13:20:23.512Z,99460.87
2018-12-20T13:22:52.037Z,99460.37
2018-12-20T13:25:19.637Z,99460.02
2018-12-20T13:27:47.782Z,99456.76
2018-12-20T13:30:16.747Z,99450.05
2018-12-20T13:32:44.306Z,99446.21
2018-12-20T13:35:12.211Z,99446.57
2018-12-20T13:37:40.460Z,99450.05
2018-12-20T13:40:08.289Z,99452.59
2018-12-20T13:42:36.482Z,99450.08
2018-12-20T13:45:04.130Z,99450.08
2018-12-20T13:47:31.688Z,99450.30
2018-12-20T13:50:00.799Z,99455.49
2018-12-20T13:52:28.363Z,99445.46
2018-12-20T13:54:56.208Z,99449.08
2018-12-20T13:57:25.827Z,99462.48
2018-12-20T13:59:53.439Z,99454.61
2018-12-20T14:02:21.208Z,99450.38
2018-12-20T14:04:52.770Z,99451.81
2018-12-20T14:07:20.354Z,99460.02
2018-12-20T14:09:47.937Z,99458.70
2018-12-20T14:12:16.417Z,99460.02
2018-12-20T14:14:44.027Z,99459.16
2018-12-20T14:17:11.619Z,99456.15
2018-12-20T14:19:39.545Z,99455.19
2018-12-20T14:22:07.115Z,99444.94
2018-12-20T14:24:34.691Z,99446.27
2018-12-20T14:27:02.735Z,99449.16
2018-12-20T14:29:30.298Z,99447.23
2018-12-20T14:31:57.903Z,99436.52
2018-12-20T14:34:26.411Z,99444.72
2018-12-20T14:36:53.955Z,99456.65
2018-12-20T14:39:21.521Z,99462.56
2018-12-20T14:41:49.491Z,99453.20
2018-12-20T14:44:17.026Z,99455.94
2018-12-20T14:46:44.671Z,99464.75
2018-12-20T14:49:14.375Z,99462.78
2018-12-20T14:51:42.537Z,99459.16
2018-12-20T14:54:10.171Z,99459.16
2018-12-20T14:56:38.498Z,99452.53
2018-12-20T14:59:06.168Z,99452.89
2018-12-20T15:01:33.772Z,99460.59
2018-12-20T15:04:02.578Z,99456.86
2018-12-20T15:06:35.742Z,99464.66
2018-12-20T15:09:03.431Z,99457.78
2018-12-20T15:11:32.446Z,99459.22
2018-12-20T15:14:01.555Z,99461.65
2018-12-20T15:16:29.152Z,99463.55
2018-12-20T15:18:57.143Z,99469.45
2018-12-20T15:21:24.872Z,99471.74
2018-12-20T15:23:52.439Z,99478.01
2018-12-20T15:26:24.976Z,99479.94
2018-12-20T15:28:54.093Z,99490.14
2018-12-20T15:31:22.027Z,99482.94
2018-12-20T15:33:50.095Z,99485.69
2018-12-20T15:36:21.622Z,99494.81
2018-12-20T15:38:49.900Z,99491.44
2018-12-20T15:41:18.684Z,99493.84
2018-12-20T15:43:51.452Z,99499.23
2018-12-20T15:46:22.234Z,99504.78
2018-12-20T15:48:56.425Z,99504.52
2018-12-20T15:51:23.116Z,99506.69
2018-12-20T15:53:50.700Z,99510.04
2018-12-20T15:56:19.669Z,99506.63
2018-12-20T15:58:47.221Z,99505.09
2018-12-20T16:01:15.701Z,99504.83
2018-12-20T16:03:47.633Z,99509.77
2018-12-20T16:06:18.732Z,99513.83
2018-12-20T16:08:46.290Z,99515.27
2018-12-20T16:11:15.586Z,99513.47
2018-12-20T16:13:44.281Z,99508.28
2018-12-20T16:16:12.464Z,99512.25
2018-12-20T16:18:40.336Z,99518.88
2018-12-20T16:21:11.537Z,99521.16
2018-12-20T16:23:39.114Z,99524.62
2018-12-20T16:26:07.097Z,99529.20
2018-12-20T16:28:35.659Z,99526.09
2018-12-20T16:31:03.552Z,99535.36
2018-12-20T16:33:32.481Z,99530.53
2018-12-20T16:36:00.318Z,99536.69
2018-12-20T16:38:31.556Z,99535.00
2018-12-20T16:40:59.502Z,99534.60
2018-12-20T16:43:27.047Z,99534.23
2018-12-20T16:45:54.586Z,99539.44
2018-12-20T16:48:25.447Z,99541.61
2018-12-20T16:50:54.361Z,99553.53
2018-12-20T16:53:21.932Z,99550.88
2018-12-20T16:55:51.675Z,99550.48
2018-12-20T16:58:21.319Z,99543.50
2018-12-20T17:00:50.915Z,99538.20
2018-12-20T17:03:20.715Z,99540.86
2018-12-20T17:05:50.003Z,99536.06
2018-12-20T17:08:17.587Z,99531.23
2018-12-20T17:10:45.581Z,99532.45
2018-12-20T17:13:13.596Z,99539.44
2018-12-20T17:15:41.191Z,99533.28
2018-12-20T17:18:09.411Z,99527.52
2018-12-20T17:20:37.574Z,99534.60
2018-12-20T17:23:05.351Z,99529.70
2018-12-20T17:25:34.171Z,99537.25
2018-12-20T17:28:01.766Z,99532.34
2018-12-20T17:30:29.334Z,99539.80
2018-12-20T17:32:57.818Z,99539.59
2018-12-20T17:35:25.411Z,99534.30
2018-12-20T17:37:55.181Z,99542.70
2018-12-20T17:40:23.790Z,99544.89
2018-12-20T17:42:51.555Z,99546.08
2018-12-20T17:45:19.155Z,99542.11
2018-12-20T17:47:47.330Z,99541.28
2018-12-20T17:50:16.840Z,99536.81
2018-12-20T17:52:44.639Z,99545.61
2018-12-20T17:55:13.089Z,99533.33
2018-12-20T17:57:40.678Z,99537.41
2018-12-20T18:00:08.247Z,99533.07
2018-12-20T18:02:36.347Z,99531.85
2018-12-20T18:05:07.159Z,99530.53
2018-12-20T18:07:34.555Z,99533.67
2018-12-20T18:10:02.588Z,99529.30
2018-12-20T18:12:30.151Z,99533.67
2018-12-20T18:14:57.747Z,99532.34
2018-12-20T18:17:26.196Z,99535.72
2018-12-20T18:19:53.738Z,99535.36
2018-12-20T18:22:23.720Z,99540.05
2018-12-20T18:24:52.657Z,99539.59
2018-12-20T18:27:20.251Z,99535.02
2018-12-20T18:29:47.795Z,99530.09
2018-12-20T18:32:17.942Z,99526.97
2018-12-20T18:34:45.524Z,99536.24
2018-12-20T18:37:13.076Z,99541.91
2018-12-20T18:39:41.646Z,99525.65
2018-12-20T18:42:09.451Z,99536.24
2018-12-20T18:44:38.323Z,99534.52
2018-12-20T18:47:05.865Z,99532.38
2018-12-20T18:49:33.439Z,99536.24
2018-12-20T18:52:04.154Z,99543.69
2018-12-20T18:54:32.346Z,99549.84
2018-12-20T18:57:00.526Z,99540.31
2018-12-20T18:59:28.503Z,99544.29
2018-12-20T19:01:58.669Z,99540.92
2018-12-20T19:04:28.411Z,99537.88
2018-12-20T19:07:01.295Z,99543.30
2018-12-20T19:09:29.723Z,99544.27
2018-12-20T19:11:57.285Z,99545.19
2018-12-20T19:14:26.230Z,99538.57
2018-12-20T19:16:54.396Z,99546.05
2018-12-20T19:19:21.971Z,99550.48
2018-12-20T19:21:49.954Z,99544.27
2018-12-20T19:24:17.528Z,99550.48
2018-12-20T19:26:45.160Z,99556.18
2018-12-20T19:29:13.311Z,99552.20
2018-12-20T19:31:42.081Z,99550.88
2018-12-20T19:34:09.646Z,99550.88
2018-12-20T19:36:37.610Z,99548.59
2018-12-20T19:39:06.611Z,99551.11
2018-12-20T19:41:35.043Z,99548.59
2018-12-20T19:44:03.651Z,99551.61
2018-12-20T19:46:31.854Z,99548.96
2018-12-20T19:49:00.569Z,99536.69
2018-12-20T19:51:28.493Z,99545.95
2018-12-20T19:53:58.930Z,99545.35
2018-12-20T19:56:26.500Z,99543.17
2018-12-20T19:58:54.523Z,99538.38
2018-12-20T20:01:22.076Z,99554.26
2018-12-20T20:03:49.655Z,99554.16
2018-12-20T20:06:17.504Z,99550.28
2018-12-20T20:08:46.031Z,99553.20
2018-12-20T20:11:13.843Z,99551.87
2018-12-20T20:13:45.344Z,99545.61
2018-12-20T20:16:18.920Z,99548.63
2018-12-20T20:18:52.691Z,99556.11
2018-12-20T20:21:20.260Z,99559.12
2018-12-20T20:23:47.929Z,99548.52
2018-12-20T20:26:18.051Z,99541.54
2018-12-20T20:28:45.650Z,99537.17
2018-12-20T20:31:14.844Z,99532.84
2018-12-20T20:33:43.564Z,99537.67
2018-12-20T20:36:11.072Z,99534.52
2018-12-20T20:38:39.468Z,99527.91
2018-12-20T20:41:08.344Z,99526.22
2018-12-20T20:43:35.904Z,99523.00
2018-12-20T20:46:03.442Z,99521.68
2018-12-20T20:48:32.732Z,99520.72
2018-12-20T20:51:01.013Z,99523.36
2018-12-20T20:53:28.538Z,99518.06
2018-12-20T20:55:57.104Z,99524.69
2018-12-20T20:58:24.653Z,99524.09
2018-12-20T21:00:53.224Z,99530.11
2018-12-20T21:03:22.744Z,99527.09
2018-12-20T21:05:50.266Z,99520.48
2018-12-20T21:08:19.092Z,99522.52
2018-12-20T21:10:47.044Z,99523.85
2018-12-20T21:13:14.622Z,99524.21
2018-12-20T21:15:43.286Z,99515.70
2018-12-20T21:18:22.266Z,99520.63
2018-12-20T21:20:50.346Z,99522.78
2018-12-20T21:23:19.410Z,99522.32
2018-12-20T21:25:47.999Z,99524.97
2018-12-20T21:28:15.564Z,99522.69
2018-12-20T21:30:43.462Z,99526.55
2018-12-20T21:33:11.034Z,99524.37
2018-12-20T21:35:39.583Z,99524.62
2018-12-20T21:38:08.111Z,99530.19
2018-12-20T21:40:35.945Z,99532.23
2018-12-20T21:43:03.495Z,99534.28
2018-12-20T21:45:31.450Z,99532.95
2018-12-20T21:48:00.503Z,99546.09
2018-12-20T21:50:28.970Z,99543.34
2018-12-20T21:52:57.207Z,99546.09
2018-12-20T21:55:24.822Z,99541.27
2018-12-20T21:57:52.410Z,99552.47
2018-12-20T22:00:20.612Z,99554.75
2018-12-20T22:02:48.832Z,99560.65
2018-12-20T22:05:16.405Z,99570.98
2018-12-20T22:07:43.919Z,99569.86
2018-12-20T22:10:11.468Z,99566.13
2018-12-20T22:12:39.040Z,99560.70
2018-12-20T22:15:06.934Z,99571.50
2018-12-20T22:17:34.487Z,99572.09
2018-12-20T22:20:02.040Z,99565.94
2018-12-20T22:22:29.881Z,99570.88
2018-12-20T22:24:57.443Z,99566.44
2018-12-20T22:27:25.030Z,99564.75
2018-12-20T22:29:52.592Z,99566.54
2018-12-20T22:32:20.154Z,99564.75
2018-12-20T22:34:48.700Z,99566.30
2018-12-20T22:37:16.219Z,99563.19
2018-12-20T22:39:43.789Z,99564.05
2018-12-20T22:42:13.568Z,99564.41
2018-12-20T22:44:41.132Z,99555.61
2018-12-20T22:47:09.719Z,99543.09
2018-12-20T22:49:38.482Z,99552.86
2018-12-20T22:52:06.101Z,99551.03
2018-12-20T22:54:33.773Z,99537.93
2018-12-20T22:57:01.299Z,99535.14
2018-12-20T22:59:28.911Z,99532.03
2018-12-20T23:01:57.794Z,99525.05
2018-12-20T23:04:25.330Z,99529.98
2018-12-20T23:06:52.908Z,99519.86
2018-12-20T23:09:21.382Z,99515.98
2018-12-20T23:11:50.367Z,99521.68
2018-12-20T23:14:17.924Z,99515.52
2018-12-20T23:16:53.520Z,99507.94
2018-12-20T23:19:15.145Z,99513.13
2018-12-20T23:21:42.728Z,99504.23
2018-12-20T23:24:11.300Z,99499.29
2018-12-20T23:26:39.538Z,99509.78
2018-12-20T23:29:07.155Z,99498.59
2018-12-20T23:31:34.693Z,99491.00
2018-12-20T23:34:02.251Z,99491.50
2018-12-20T23:36:29.783Z,99488.84
2018-12-20T23:38:57.628Z,99482.23
2018-12-20T23:41:25.219Z,99486.20
2018-12-20T23:43:52.808Z,99472.95
2018-12-20T23:46:20.499Z,99464.76
2018-12-20T23:48:48.033Z,99465.58
2018-12-20T23:51:15.620Z,99465.22
2018-12-20T23:53:43.621Z,99456.31
2018-12-20T23:56:11.182Z,99455.34
2018-12-20T23:58:38.788Z,99461.97
